Terminal Aerodrome Forecast
Issued by NWS

Home | Current Version | Previous Version | Text Only | Print | Product List | Glossary On
Versions: 1 2 3 4 5 6 7 8 9 10 11 12 13
000
FTUS44 KEPZ 181132
TAFTCS
TAF
KTCS 181132Z 1812/1912 28006KT P6SM FEW080 SCT250
     FM181800 16008KT P6SM SCT060 SCT100 BKN200
     FM190300 26008KT P6SM VCTS SCT050CB BKN100 BKN200=

USA.gov is the U.S. government's official web portal to all federal, state and local government web resources and services.